Time,TemperatureF,DewpointF,PressureIn,WindDirection,WindDirectionDegrees,WindSpeedMPH,WindSpeedGustMPH,Humidity,HourlyPrecipIn,Conditions,Clouds,dailyrainin,SoftwareType,DateUTC
2013-02-27 00:05:00,47.3,47.3,29.73,West,270,1.0,2.0,100,0.00,,FEW200,0.71,VWS V14.01,2013-02-27 05:05:00,
2013-02-27 00:15:00,47.0,47.0,29.73,West,270,0.0,3.0,100,0.00,,FEW200,0.00,VWS V14.01,2013-02-27 05:15:00,
2013-02-27 00:25:00,46.7,46.7,29.73,West,259,0.0,3.0,100,0.00,,FEW200,0.00,VWS V14.01,2013-02-27 05:25:00,
2013-02-27 00:35:00,46.4,46.4,29.73,WNW,282,0.0,4.0,100,0.00,,FEW200,0.00,VWS V14.01,2013-02-27 05:35:00,
2013-02-27 00:45:00,46.1,46.1,29.73,WNW,282,1.0,3.0,100,0.00,,FEW200,0.00,VWS V14.01,2013-02-27 05:45:00,
2013-02-27 00:55:00,45.7,45.7,29.73,West,281,3.0,3.0,100,0.00,,FEW200,0.00,VWS V14.01,2013-02-27 05:55:00,
2013-02-27 01:05:00,45.5,45.5,29.74,WNW,290,2.0,5.0,100,0.00,,,0.00,VWS V14.01,2013-02-27 06:05:00,
2013-02-27 01:15:00,45.5,45.5,29.74,WSW,257,2.0,6.0,100,0.00,,,0.00,VWS V14.01,2013-02-27 06:15:00,
2013-02-27 01:25:00,45.2,45.2,29.74,WNW,298,0.0,7.0,100,0.00,,,0.00,VWS V14.01,2013-02-27 06:25:00,
2013-02-27 01:35:00,45.1,45.1,29.74,WNW,282,2.0,6.0,100,0.00,,,0.00,VWS V14.01,2013-02-27 06:35:00,
2013-02-27 01:45:00,44.8,44.8,29.74,WSW,252,4.0,4.0,100,0.00,,,0.00,VWS V14.01,2013-02-27 06:45:00,
2013-02-27 01:55:00,44.6,44.6,29.74,West,274,0.0,6.0,100,0.00,,,0.00,VWS V14.01,2013-02-27 06:55:00,
2013-02-27 02:05:00,44.3,44.3,29.74,West,259,1.0,6.0,100,0.00,,,0.00,VWS V14.01,2013-02-27 07:05:00,
2013-02-27 02:15:00,44.2,44.2,29.74,South,186,3.0,5.0,100,0.00,,,0.00,VWS V14.01,2013-02-27 07:15:00,
2013-02-27 02:25:00,44.1,44.1,29.74,West,276,0.0,7.0,100,0.00,,,0.00,VWS V14.01,2013-02-27 07:25:00,
2013-02-27 02:35:00,43.9,43.9,29.74,WNW,289,4.0,11.0,100,0.00,,,0.00,VWS V14.01,2013-02-27 07:35:00,
2013-02-27 02:45:00,43.8,43.8,29.74,WSW,255,3.0,11.0,100,0.00,,,0.00,VWS V14.01,2013-02-27 07:45:00,
2013-02-27 02:55:00,43.8,43.8,29.74,West,263,2.0,5.0,100,0.00,,,0.00,VWS V14.01,2013-02-27 07:55:00,
2013-02-27 03:05:00,43.8,43.8,29.74,WNW,300,4.0,7.0,100,0.00,,,0.00,VWS V14.01,2013-02-27 08:05:00,
2013-02-27 03:15:00,43.8,43.8,29.74,SSW,207,0.0,5.0,100,0.00,,,0.00,VWS V14.01,2013-02-27 08:15:00,
2013-02-27 03:25:00,43.8,43.8,29.74,WNW,283,6.0,10.0,100,0.00,,,0.00,VWS V14.01,2013-02-27 08:25:00,
2013-02-27 03:35:00,43.5,43.5,29.72,SW,223,3.0,9.0,100,0.00,,,0.00,VWS V14.01,2013-02-27 08:35:00,
2013-02-27 03:45:00,43.5,43.5,29.72,WSW,245,0.0,4.0,100,0.00,,,0.00,VWS V14.01,2013-02-27 08:45:00,
2013-02-27 03:55:00,43.3,43.3,29.72,SSW,211,0.0,5.0,100,0.00,,,0.00,VWS V14.01,2013-02-27 08:55:00,
2013-02-27 04:05:00,43.2,43.2,29.72,WSW,252,2.0,7.0,100,0.00,,,0.00,VWS V14.01,2013-02-27 09:05:00,
2013-02-27 04:15:00,43.2,43.2,29.72,WNW,297,5.0,6.0,100,0.00,,,0.00,VWS V14.01,2013-02-27 09:15:00,
2013-02-27 04:25:00,43.2,43.2,29.74,West,261,1.0,9.0,100,0.00,,,0.00,VWS V14.01,2013-02-27 09:25:00,
2013-02-27 04:35:00,43.1,43.1,29.74,WNW,300,1.0,12.0,100,0.00,,,0.00,VWS V14.01,2013-02-27 09:35:00,
2013-02-27 04:45:00,42.9,42.9,29.74,WNW,283,3.0,10.0,100,0.00,,,0.00,VWS V14.01,2013-02-27 09:45:00,
2013-02-27 04:55:00,42.9,42.9,29.75,WNW,296,1.0,10.0,100,0.00,,,0.00,VWS V14.01,2013-02-27 09:55:00,
2013-02-27 05:05:00,42.8,42.5,29.75,SW,231,2.0,9.0,99,0.00,,OVC018,0.00,VWS V14.01,2013-02-27 10:05:00,
2013-02-27 05:15:00,42.8,42.5,29.75,WNW,297,1.0,8.0,99,0.00,,OVC018,0.00,VWS V14.01,2013-02-27 10:15:00,
2013-02-27 05:25:00,42.6,42.1,29.77,NW,323,6.0,11.0,98,0.00,,OVC018,0.00,VWS V14.01,2013-02-27 10:25:00,
2013-02-27 05:35:00,42.3,41.5,29.76,WNW,282,4.0,7.0,97,0.00,,OVC018,0.00,VWS V14.01,2013-02-27 10:35:00,
2013-02-27 05:45:00,42.2,41.1,29.76,WNW,283,2.0,7.0,96,0.00,,OVC018,0.00,VWS V14.01,2013-02-27 10:45:00,
2013-02-27 05:55:00,42.2,40.9,29.77,NW,313,1.0,10.0,95,0.00,,OVC018,0.00,VWS V14.01,2013-02-27 10:55:00,
2013-02-27 06:05:00,42.1,40.8,29.78,WNW,295,2.0,6.0,95,0.00,,BKN019,0.00,VWS V14.01,2013-02-27 11:05:00,
2013-02-27 06:15:00,42.1,40.8,29.78,West,278,3.0,7.0,95,0.00,,BKN019,0.00,VWS V14.01,2013-02-27 11:15:00,
2013-02-27 06:25:00,42.1,40.8,29.78,WNW,283,4.0,6.0,95,0.00,,BKN019,0.00,VWS V14.01,2013-02-27 11:25:00,
2013-02-27 06:35:00,41.9,40.3,29.79,West,266,2.0,5.0,94,0.00,,BKN019,0.00,VWS V14.01,2013-02-27 11:35:00,
2013-02-27 06:45:00,41.9,40.3,29.79,WNW,299,1.0,9.0,94,0.00,,BKN019,0.00,VWS V14.01,2013-02-27 11:45:00,
2013-02-27 06:55:00,41.9,40.3,29.80,West,270,5.0,12.0,94,0.00,,BKN019,0.00,VWS V14.01,2013-02-27 11:55:00,
2013-02-27 07:05:00,41.9,40.3,29.81,West,261,2.0,7.0,94,0.00,,BKN250,0.00,VWS V14.01,2013-02-27 12:05:00,
2013-02-27 07:15:00,41.8,40.2,29.81,SW,229,0.0,6.0,94,0.00,,BKN250,0.00,VWS V14.01,2013-02-27 12:15:00,
2013-02-27 07:25:00,41.8,40.2,29.82,West,280,2.0,7.0,94,0.00,,BKN250,0.00,VWS V14.01,2013-02-27 12:25:00,
2013-02-27 07:35:00,41.9,40.3,29.83,WNW,292,1.0,7.0,94,0.00,,BKN250,0.00,VWS V14.01,2013-02-27 12:35:00,
2013-02-27 07:45:00,41.9,40.3,29.83,WSW,257,0.0,5.0,94,0.00,,BKN250,0.00,VWS V14.01,2013-02-27 12:45:00,
2013-02-27 07:55:00,42.1,40.5,29.84,West,278,1.0,4.0,94,0.00,,BKN250,0.00,VWS V14.01,2013-02-27 12:55:00,
2013-02-27 08:05:00,42.1,40.2,29.84,WNW,293,1.0,7.0,93,0.00,,BKN200,0.00,VWS V14.01,2013-02-27 13:05:00,
2013-02-27 08:15:00,42.3,40.4,29.84,SW,223,3.0,5.0,93,0.00,,BKN200,0.00,VWS V14.01,2013-02-27 13:15:00,
2013-02-27 08:25:00,42.6,40.4,29.85,West,271,5.0,6.0,92,0.00,,BKN200,0.00,VWS V14.01,2013-02-27 13:25:00,
2013-02-27 08:35:00,42.9,40.7,29.86,WNW,287,2.0,10.0,92,0.00,,BKN200,0.00,VWS V14.01,2013-02-27 13:35:00,
2013-02-27 08:45:00,43.2,40.8,29.86,WSW,248,5.0,9.0,91,0.00,,BKN200,0.00,VWS V14.01,2013-02-27 13:45:00,
2013-02-27 08:55:00,43.5,40.8,29.88,West,276,6.0,13.0,90,0.00,,BKN200,0.00,VWS V14.01,2013-02-27 13:55:00,
2013-02-27 09:05:00,43.9,40.6,29.88,WSW,251,3.0,13.0,88,0.00,,BKN200,0.00,VWS V14.01,2013-02-27 14:05:00,
2013-02-27 09:15:00,44.6,41.0,29.88,WSW,257,4.0,10.0,87,0.00,,BKN200,0.00,VWS V14.01,2013-02-27 14:15:00,
2013-02-27 09:25:00,45.4,41.2,29.88,WNW,294,3.0,11.0,85,0.00,,BKN200,0.00,VWS V14.01,2013-02-27 14:25:00,
2013-02-27 09:35:00,45.5,39.7,29.88,WNW,295,4.0,8.0,80,0.00,,BKN200,0.00,VWS V14.01,2013-02-27 14:35:00,
2013-02-27 09:45:00,46.0,39.9,29.88,NW,314,3.0,9.0,79,0.00,,BKN200,0.00,VWS V14.01,2013-02-27 14:45:00,
2013-02-27 09:55:00,46.4,39.3,29.88,West,278,5.0,10.0,76,0.00,,BKN200,0.00,VWS V14.01,2013-02-27 14:55:00,
2013-02-27 10:05:00,47.0,39.5,29.88,NW,320,5.0,8.0,75,0.00,,SCT200,0.00,VWS V14.01,2013-02-27 15:05:00,
2013-02-27 10:15:00,47.9,39.0,29.88,WSW,258,2.0,5.0,71,0.00,,SCT200,0.00,VWS V14.01,2013-02-27 15:15:00,
2013-02-27 10:25:00,48.6,38.9,29.88,West,259,4.0,7.0,69,0.00,,SCT200,0.00,VWS V14.01,2013-02-27 15:25:00,
2013-02-27 10:35:00,48.8,38.0,29.88,NW,316,1.0,10.0,66,0.00,,SCT200,0.00,VWS V14.01,2013-02-27 15:35:00,
2013-02-27 10:45:00,49.2,38.3,29.88,West,266,1.0,11.0,66,0.00,,SCT200,0.00,VWS V14.01,2013-02-27 15:45:00,
2013-02-27 10:55:00,49.6,37.9,29.89,SW,215,3.0,11.0,64,0.00,,SCT200,0.00,VWS V14.01,2013-02-27 15:55:00,
2013-02-27 11:05:00,50.2,37.3,29.89,WNW,300,5.0,9.0,61,0.00,,SCT200,0.00,VWS V14.01,2013-02-27 16:05:00,
2013-02-27 11:15:00,50.7,36.9,29.89,West,281,3.0,12.0,59,0.00,,SCT200,0.00,VWS V14.01,2013-02-27 16:15:00,
2013-02-27 11:25:00,51.0,36.3,29.89,WNW,285,15.0,15.0,57,0.00,,SCT200,0.00,VWS V14.01,2013-02-27 16:25:00,
2013-02-27 11:35:00,51.4,35.8,29.90,West,262,5.0,15.0,55,0.00,,SCT200,0.00,VWS V14.01,2013-02-27 16:35:00,
2013-02-27 11:45:00,51.9,35.8,29.90,NNW,335,1.0,11.0,54,0.00,,SCT200,0.00,VWS V14.01,2013-02-27 16:45:00,
2013-02-27 11:55:00,52.5,35.4,29.89,West,271,4.0,7.0,52,0.00,,SCT200,0.00,VWS V14.01,2013-02-27 16:55:00,
2013-02-27 12:05:00,53.3,36.6,29.88,NW,316,2.0,7.0,53,0.00,,SCT200,0.00,VWS V14.01,2013-02-27 17:05:00,
2013-02-27 12:15:00,53.9,36.2,29.88,West,277,4.0,9.0,51,0.00,,SCT200,0.00,VWS V14.01,2013-02-27 17:15:00,
2013-02-27 12:25:00,54.5,35.2,29.88,WNW,300,7.0,11.0,48,0.00,,SCT200,0.00,VWS V14.01,2013-02-27 17:25:00,
2013-02-27 12:35:00,54.2,35.0,29.87,West,275,4.0,11.0,48,0.00,,SCT200,0.00,VWS V14.01,2013-02-27 17:35:00,
2013-02-27 12:45:00,54.5,34.7,29.87,NW,313,3.0,10.0,47,0.00,,SCT200,0.00,VWS V14.01,2013-02-27 17:45:00,
2013-02-27 12:55:00,55.0,34.6,29.87,NNW,338,4.0,7.0,46,0.00,,SCT200,0.00,VWS V14.01,2013-02-27 17:55:00,
2013-02-27 13:05:00,56.0,35.0,29.86,NW,306,10.0,10.0,45,0.00,,SCT200,0.00,VWS V14.01,2013-02-27 18:05:00,
2013-02-27 13:15:00,56.0,33.8,29.86,NW,307,5.0,13.0,43,0.00,,SCT200,0.00,VWS V14.01,2013-02-27 18:15:00,
2013-02-27 13:25:00,56.3,33.5,29.85,WSW,247,0.0,10.0,42,0.00,,SCT200,0.00,VWS V14.01,2013-02-27 18:25:00,
2013-02-27 13:35:00,56.5,33.1,29.83,SW,233,2.0,6.0,41,0.00,,SCT200,0.00,VWS V14.01,2013-02-27 18:35:00,
2013-02-27 13:45:00,56.9,32.8,29.83,WSW,244,7.0,10.0,40,0.00,,SCT200,0.00,VWS V14.01,2013-02-27 18:45:00,
2013-02-27 13:55:00,56.5,33.1,29.84,WSW,246,2.0,9.0,41,0.00,,SCT200,0.00,VWS V14.01,2013-02-27 18:55:00,
2013-02-27 14:05:00,57.8,34.9,29.84,WNW,295,4.0,7.0,42,0.00,,SCT200,0.00,VWS V14.01,2013-02-27 19:05:00,
2013-02-27 14:15:00,57.5,33.4,29.84,West,266,7.0,10.0,40,0.00,,SCT200,0.00,VWS V14.01,2013-02-27 19:15:00,
2013-02-27 14:25:00,57.2,33.1,29.85,West,281,2.0,11.0,40,0.00,,SCT200,0.00,VWS V14.01,2013-02-27 19:25:00,
2013-02-27 14:35:00,57.8,34.3,29.84,SSW,196,5.0,11.0,41,0.00,,SCT200,0.00,VWS V14.01,2013-02-27 19:35:00,
2013-02-27 14:45:00,58.0,33.2,29.84,South,191,1.0,9.0,39,0.00,,SCT200,0.00,VWS V14.01,2013-02-27 19:45:00,
2013-02-27 14:55:00,58.7,33.8,29.84,SSW,207,9.0,11.0,39,0.00,,SCT200,0.00,VWS V14.01,2013-02-27 19:55:00,
2013-02-27 15:05:00,58.7,33.2,29.83,NW,314,4.0,10.0,38,0.00,,SCT200,0.00,VWS V14.01,2013-02-27 20:05:00,
2013-02-27 15:15:00,58.3,34.7,29.83,South,187,1.0,7.0,41,0.00,,SCT200,0.00,VWS V14.01,2013-02-27 20:15:00,
2013-02-27 15:25:00,58.6,34.4,29.83,WSW,251,2.0,11.0,40,0.00,,SCT200,0.00,VWS V14.01,2013-02-27 20:25:00,
2013-02-27 15:35:00,58.6,33.7,29.83,West,278,5.0,10.0,39,0.00,,SCT200,0.00,VWS V14.01,2013-02-27 20:35:00,
2013-02-27 15:45:00,58.3,34.1,29.83,WNW,290,3.0,7.0,40,0.00,,SCT200,0.00,VWS V14.01,2013-02-27 20:45:00,
2013-02-27 15:55:00,57.8,33.7,29.83,West,263,0.0,11.0,40,0.00,,SCT200,0.00,VWS V14.01,2013-02-27 20:55:00,
2013-02-27 16:05:00,58.3,34.7,29.83,South,191,5.0,10.0,41,0.00,,BKN200,0.00,VWS V14.01,2013-02-27 21:05:00,
2013-02-27 16:15:00,58.7,35.1,29.83,West,279,0.0,9.0,41,0.00,,BKN200,0.00,VWS V14.01,2013-02-27 21:15:00,
2013-02-27 16:25:00,58.7,34.5,29.83,SW,216,2.0,6.0,40,0.00,,BKN200,0.00,VWS V14.01,2013-02-27 21:25:00,
2013-02-27 16:35:00,58.0,34.5,29.83,West,265,2.0,10.0,41,0.00,,BKN200,0.00,VWS V14.01,2013-02-27 21:35:00,
2013-02-27 16:45:00,58.0,35.1,29.83,WNW,300,0.0,9.0,42,0.00,,BKN200,0.00,VWS V14.01,2013-02-27 21:45:00,
2013-02-27 16:55:00,58.3,35.3,29.83,WNW,285,4.0,7.0,42,0.00,,BKN200,0.00,VWS V14.01,2013-02-27 21:55:00,
2013-02-27 17:05:00,57.5,35.2,29.83,WSW,255,1.0,11.0,43,0.00,,SCT200,0.00,VWS V14.01,2013-02-27 22:05:00,
2013-02-27 17:15:00,57.3,35.6,29.83,WSW,250,2.0,8.0,44,0.00,,SCT200,0.00,VWS V14.01,2013-02-27 22:15:00,
2013-02-27 17:25:00,57.0,35.9,29.83,WNW,287,0.0,9.0,45,0.00,,SCT200,0.00,VWS V14.01,2013-02-27 22:25:00,
2013-02-27 17:35:00,56.9,36.3,29.83,SSW,195,4.0,6.0,46,0.00,,SCT200,0.00,VWS V14.01,2013-02-27 22:35:00,
2013-02-27 17:45:00,56.5,37.1,29.83,WSW,253,1.0,4.0,48,0.00,,SCT200,0.00,VWS V14.01,2013-02-27 22:45:00,
2013-02-27 17:55:00,55.7,36.8,29.83,West,274,2.0,3.0,49,0.00,,SCT200,0.00,VWS V14.01,2013-02-27 22:55:00,
2013-02-27 18:05:00,55.1,36.8,29.84,West,259,0.0,4.0,50,0.00,,SCT200,0.00,VWS V14.01,2013-02-27 23:05:00,
2013-02-27 18:15:00,54.4,37.2,29.84,WSW,250,0.0,4.0,52,0.00,,SCT200,0.00,VWS V14.01,2013-02-27 23:15:00,
2013-02-27 18:25:00,53.8,37.6,29.84,NNW,332,1.0,3.0,54,0.00,,SCT200,0.00,VWS V14.01,2013-02-27 23:25:00,
2013-02-27 18:31:00,53.5,37.3,29.84,NNW,332,1.0,1.0,54,0.00,,SCT200,0.00,VWS V14.01,2013-02-27 23:31:00,
2013-02-27 18:37:00,53.2,37.5,29.85,SW,217,0.0,0.0,55,0.00,,SCT200,0.00,VWS V14.01,2013-02-27 23:37:00,
2013-02-27 18:43:00,52.8,37.5,29.85,SW,226,0.0,1.0,56,0.00,,SCT200,0.00,VWS V14.01,2013-02-27 23:43:00,
2013-02-27 18:49:00,52.3,37.5,29.85,SW,226,0.0,1.0,57,0.00,,SCT200,0.00,VWS V14.01,2013-02-27 23:49:00,
2013-02-27 18:55:00,52.2,37.9,29.85,SW,222,0.0,3.0,58,0.00,,SCT200,0.00,VWS V14.01,2013-02-27 23:55:00,
2013-02-27 19:01:00,51.9,38.0,29.85,WSW,242,0.0,3.0,59,0.00,,SCT200,0.00,VWS V14.01,2013-02-28 00:01:00,
2013-02-27 19:07:00,51.7,38.3,29.85,WSW,241,0.0,0.0,60,0.00,,SCT200,0.00,VWS V14.01,2013-02-28 00:07:00,
2013-02-27 19:13:00,51.3,37.9,29.85,WSW,241,0.0,0.0,60,0.00,,SCT200,0.00,VWS V14.01,2013-02-28 00:13:00,
2013-02-27 19:19:00,50.8,38.3,29.85,WSW,241,0.0,0.0,62,0.00,,SCT200,0.00,VWS V14.01,2013-02-28 00:19:00,
2013-02-27 19:25:00,50.4,38.3,29.85,WSW,241,0.0,1.0,63,0.00,,SCT200,0.00,VWS V14.01,2013-02-28 00:25:00,
2013-02-27 19:31:00,50.1,38.0,29.85,WSW,241,0.0,3.0,63,0.00,,SCT200,0.00,VWS V14.01,2013-02-28 00:31:00,
2013-02-27 19:37:00,50.1,38.0,29.85,WSW,241,2.0,3.0,63,0.00,,SCT200,0.00,VWS V14.01,2013-02-28 00:37:00,
2013-02-27 19:43:00,49.9,38.2,29.85,WNW,292,3.0,3.0,64,0.00,,SCT200,0.00,VWS V14.01,2013-02-28 00:43:00,
2013-02-27 19:49:00,50.1,38.0,29.85,WNW,292,0.0,2.0,63,0.00,,SCT200,0.00,VWS V14.01,2013-02-28 00:49:00,
2013-02-27 19:55:00,50.2,38.1,29.85,SW,221,0.0,3.0,63,0.00,,SCT200,0.00,VWS V14.01,2013-02-28 00:55:00,
2013-02-27 20:01:00,50.2,38.1,29.85,SW,221,0.0,1.0,63,0.00,,SCT200,0.00,VWS V14.01,2013-02-28 01:01:00,
2013-02-27 20:07:00,49.9,37.8,29.85,SW,221,0.0,0.0,63,0.00,,SCT200,0.00,VWS V14.01,2013-02-28 01:07:00,
2013-02-27 20:13:00,49.6,37.9,29.85,SW,221,0.0,2.0,64,0.00,,SCT200,0.00,VWS V14.01,2013-02-28 01:13:00,
2013-02-27 20:19:00,49.4,38.1,29.85,West,264,0.0,2.0,65,0.00,,SCT200,0.00,VWS V14.01,2013-02-28 01:19:00,
2013-02-27 20:25:00,49.2,38.0,29.85,West,264,0.0,2.0,65,0.00,,SCT200,0.00,VWS V14.01,2013-02-28 01:25:00,
2013-02-27 20:31:00,48.9,38.1,29.85,West,264,0.0,2.0,66,0.00,,SCT200,0.00,VWS V14.01,2013-02-28 01:31:00,
2013-02-27 20:37:00,48.8,38.0,29.85,West,264,0.0,1.0,66,0.00,,SCT200,0.00,VWS V14.01,2013-02-28 01:37:00,
2013-02-27 20:43:00,48.8,38.0,29.85,West,264,0.0,2.0,66,0.00,,SCT200,0.00,VWS V14.01,2013-02-28 01:43:00,
2013-02-27 20:49:00,48.9,38.1,29.85,South,187,0.0,3.0,66,0.00,,SCT200,0.00,VWS V14.01,2013-02-28 01:49:00,
2013-02-27 20:55:00,48.9,38.1,29.85,South,180,0.0,3.0,66,0.00,,SCT200,0.00,VWS V14.01,2013-02-28 01:55:00,
2013-02-27 21:01:00,48.8,38.0,29.85,South,180,0.0,1.0,66,0.00,,FEW250,0.00,VWS V14.01,2013-02-28 02:01:00,
2013-02-27 21:07:00,48.8,38.0,29.85,WSW,251,0.0,0.0,66,0.00,,FEW250,0.00,VWS V14.01,2013-02-28 02:07:00,
2013-02-27 21:13:00,48.6,38.2,29.85,SW,225,0.0,3.0,67,0.00,,FEW250,0.00,VWS V14.01,2013-02-28 02:13:00,
2013-02-27 21:19:00,48.5,38.1,29.85,SW,225,0.0,2.0,67,0.00,,FEW250,0.00,VWS V14.01,2013-02-28 02:19:00,
2013-02-27 21:25:00,48.3,37.9,29.85,SW,223,0.0,3.0,67,0.00,,FEW250,0.00,VWS V14.01,2013-02-28 02:25:00,
2013-02-27 21:30:00,48.2,37.8,29.85,WSW,258,0.0,2.0,67,0.00,,FEW250,0.00,VWS V14.01,2013-02-28 02:30:00,
2013-02-27 21:35:00,48.2,38.2,29.85,WSW,258,0.0,3.0,68,0.00,,FEW250,0.00,VWS V14.01,2013-02-28 02:35:00,
2013-02-27 21:41:00,48.2,37.8,29.85,West,266,3.0,3.0,67,0.00,,FEW250,0.00,VWS V14.01,2013-02-28 02:41:00,
2013-02-27 21:47:00,47.9,37.9,29.85,West,266,1.0,1.0,68,0.00,,FEW250,0.00,VWS V14.01,2013-02-28 02:47:00,
2013-02-27 21:53:00,47.7,38.0,29.85,WSW,246,0.0,3.0,69,0.00,,FEW250,0.00,VWS V14.01,2013-02-28 02:53:00,
2013-02-27 21:59:00,47.4,37.8,29.85,WSW,246,0.0,1.0,69,0.00,,FEW250,0.00,VWS V14.01,2013-02-28 02:59:00,
2013-02-27 22:05:00,47.3,38.0,29.85,WSW,246,0.0,1.0,70,0.00,,FEW250,0.00,VWS V14.01,2013-02-28 03:05:00,
2013-02-27 22:11:00,47.0,37.7,29.85,WSW,246,0.0,1.0,70,0.00,,FEW250,0.00,VWS V14.01,2013-02-28 03:11:00,
2013-02-27 22:17:00,46.7,37.8,29.85,WSW,246,0.0,0.0,71,0.00,,FEW250,0.00,VWS V14.01,2013-02-28 03:17:00,
2013-02-27 22:23:00,46.4,37.9,29.84,WSW,246,0.0,0.0,72,0.00,,FEW250,0.00,VWS V14.01,2013-02-28 03:23:00,
2013-02-27 22:29:00,46.1,37.6,29.84,WSW,246,0.0,1.0,72,0.00,,FEW250,0.00,VWS V14.01,2013-02-28 03:29:00,
2013-02-27 22:35:00,45.7,37.5,29.84,WSW,246,0.0,1.0,73,0.00,,FEW250,0.00,VWS V14.01,2013-02-28 03:35:00,
2013-02-27 22:41:00,45.2,37.8,29.84,WSW,246,0.0,0.0,75,0.00,,FEW250,0.00,VWS V14.01,2013-02-28 03:41:00,
2013-02-27 22:47:00,45.1,37.7,29.84,WSW,246,0.0,0.0,75,0.00,,FEW250,0.00,VWS V14.01,2013-02-28 03:47:00,
2013-02-27 22:53:00,44.8,37.7,29.83,WSW,246,0.0,0.0,76,0.00,,FEW250,0.00,VWS V14.01,2013-02-28 03:53:00,
2013-02-27 22:59:00,44.5,37.4,29.83,WSW,246,0.0,0.0,76,0.00,,FEW250,0.00,VWS V14.01,2013-02-28 03:59:00,
2013-02-27 23:05:00,44.2,37.5,29.83,WSW,246,0.0,0.0,77,0.00,,FEW060,0.00,VWS V14.01,2013-02-28 04:05:00,
2013-02-27 23:11:00,43.9,37.5,29.83,WSW,246,0.0,1.0,78,0.00,,FEW060,0.00,VWS V14.01,2013-02-28 04:11:00,
2013-02-27 23:17:00,43.9,37.5,29.83,WSW,246,0.0,0.0,78,0.00,,FEW060,0.00,VWS V14.01,2013-02-28 04:17:00,
2013-02-27 23:23:00,43.8,37.4,29.82,WSW,246,0.0,0.0,78,0.00,,FEW060,0.00,VWS V14.01,2013-02-28 04:23:00,
2013-02-27 23:29:00,43.8,37.4,29.82,WSW,246,0.0,0.0,78,0.00,,FEW060,0.00,VWS V14.01,2013-02-28 04:29:00,
2013-02-27 23:35:00,43.6,37.5,29.82,WSW,246,0.0,0.0,79,0.00,,FEW060,0.00,VWS V14.01,2013-02-28 04:35:00,
2013-02-27 23:41:00,43.5,37.4,29.82,WSW,246,0.0,0.0,79,0.00,,FEW060,0.00,VWS V14.01,2013-02-28 04:41:00,
2013-02-27 23:47:00,43.5,37.4,29.82,WSW,246,0.0,0.0,79,0.00,,FEW060,0.00,VWS V14.01,2013-02-28 04:47:00,
2013-02-27 23:53:00,43.8,37.7,29.81,WSW,246,0.0,1.0,79,0.00,,FEW060,0.00,VWS V14.01,2013-02-28 04:53:00,
2013-02-27 23:59:00,44.5,38.1,29.81,WSW,246,0.0,2.0,78,0.00,,FEW060,0.00,VWS V14.01,2013-02-28 04:59:00,